Time;durP1;ratioP1;P1;durP2;ratioP2;P2;SDS_P1;SDS_P2;PMS_P1;PMS_P2;Temp;Humidity;BMP_temperature;BMP_pressure;BME280_temperature;BME280_humidity;BME280_pressure;Samples;Min_cycle;Max_cycle;Signal;HPM_P1;HPM_P2
2024/03/03 00:00:12;;;;;;;24.08;16.67;;;-1.00;96.50;;;;;;4933415;29;20031;-76
2024/03/03 00:02:38;;;;;;;26.80;16.48;;;-1.00;96.50;;;;;;4935749;29;20397;-76
2024/03/03 00:05:05;;;;;;;24.25;15.13;;;-1.00;96.50;;;;;;4935759;29;20039;-76
2024/03/03 00:07:31;;;;;;;29.00;16.35;;;-0.90;96.50;;;;;;4928031;29;20030;-77
2024/03/03 00:09:57;;;;;;;26.27;16.00;;;-0.90;96.50;;;;;;4936755;29;20094;-76
2024/03/03 00:12:23;;;;;;;30.08;14.90;;;-1.00;96.50;;;;;;4934278;29;20126;-79
2024/03/03 00:14:49;;;;;;;28.77;16.40;;;-1.00;96.50;;;;;;4934394;29;20030;-78
2024/03/03 00:17:15;;;;;;;34.38;16.35;;;-1.00;96.50;;;;;;4935536;29;20108;-76
2024/03/03 00:19:41;;;;;;;28.73;16.17;;;-1.00;96.60;;;;;;4935763;29;20386;-78
2024/03/03 00:22:08;;;;;;;29.05;16.58;;;-1.00;96.50;;;;;;4934279;29;20039;-78
2024/03/03 00:24:34;;;;;;;32.97;15.93;;;-1.00;96.50;;;;;;4934080;29;20054;-77
2024/03/03 00:27:00;;;;;;;32.28;16.98;;;-1.00;96.60;;;;;;4935554;29;20050;-79
2024/03/03 00:29:26;;;;;;;27.20;17.10;;;-1.00;96.70;;;;;;4935480;29;20028;-76
2024/03/03 00:31:52;;;;;;;24.55;15.15;;;-1.00;96.60;;;;;;4931369;29;20031;-76
2024/03/03 00:34:17;;;;;;;24.65;15.45;;;-1.00;96.60;;;;;;4934214;29;20075;-78
2024/03/03 00:36:43;;;;;;;34.42;16.35;;;-1.10;96.60;;;;;;4934830;29;20048;-78
2024/03/03 00:39:09;;;;;;;27.27;16.25;;;-1.00;96.60;;;;;;4935687;29;20032;-77
2024/03/03 00:41:35;;;;;;;34.28;17.30;;;-1.10;96.50;;;;;;4935548;29;20026;-76
2024/03/03 00:44:00;;;;;;;28.77;16.30;;;-1.10;96.40;;;;;;4934987;29;20397;-77
2024/03/03 00:46:26;;;;;;;25.23;15.98;;;-1.10;96.40;;;;;;4934917;29;20047;-77
2024/03/03 00:48:52;;;;;;;29.65;16.58;;;-1.10;96.50;;;;;;4926441;29;20031;-77
2024/03/03 00:51:18;;;;;;;34.30;17.02;;;-1.10;96.50;;;;;;4935299;29;20559;-77
2024/03/03 00:53:44;;;;;;;29.33;15.65;;;-1.20;96.50;;;;;;4935350;29;20075;-76
2024/03/03 00:56:09;;;;;;;28.95;15.73;;;-1.20;96.50;;;;;;4933997;29;20032;-77
2024/03/03 00:58:35;;;;;;;32.97;16.23;;;-1.20;96.60;;;;;;4934784;29;20024;-77
2024/03/03 01:01:01;;;;;;;29.77;17.10;;;-1.20;96.50;;;;;;4931497;29;20031;-77
2024/03/03 01:03:29;;;;;;;29.75;16.70;;;-1.20;96.50;;;;;;4935072;29;20036;-77
2024/03/03 01:05:56;;;;;;;29.98;16.60;;;-1.20;96.50;;;;;;4925285;29;20043;-76
2024/03/03 01:08:22;;;;;;;31.25;17.42;;;-1.20;96.50;;;;;;4934679;29;20449;-76
2024/03/03 01:10:47;;;;;;;34.00;17.40;;;-1.20;96.60;;;;;;4933571;29;20035;-78
2024/03/03 01:13:13;;;;;;;30.77;17.67;;;-1.20;96.60;;;;;;4935309;29;20031;-78
2024/03/03 01:15:39;;;;;;;28.33;16.13;;;-1.30;96.60;;;;;;4934800;29;20051;-76
2024/03/03 01:18:05;;;;;;;27.15;15.63;;;-1.30;96.70;;;;;;4934969;29;20031;-78
2024/03/03 01:20:31;;;;;;;27.10;15.80;;;-1.20;96.70;;;;;;4932739;29;20047;-79
2024/03/03 01:22:57;;;;;;;26.35;15.48;;;-1.20;96.70;;;;;;4934716;29;20031;-77
2024/03/03 01:25:22;;;;;;;28.98;14.40;;;-1.20;96.60;;;;;;4934627;29;20054;-78
2024/03/03 01:27:48;;;;;;;27.52;15.23;;;-1.30;96.60;;;;;;4934546;29;20026;-77
2024/03/03 01:30:14;;;;;;;26.52;15.95;;;-1.20;96.60;;;;;;4935000;29;20036;-76
2024/03/03 01:32:40;;;;;;;28.58;13.93;;;-1.30;96.50;;;;;;4934281;29;20053;-77
2024/03/03 01:35:06;;;;;;;27.92;14.75;;;-1.30;96.40;;;;;;4932864;29;20031;-78
2024/03/03 01:37:32;;;;;;;26.98;14.30;;;-1.30;96.50;;;;;;4927976;29;20114;-77
2024/03/03 01:39:58;;;;;;;30.17;15.48;;;-1.30;96.60;;;;;;4949071;29;20035;-76
2024/03/03 01:42:23;;;;;;;26.35;14.57;;;-1.30;96.50;;;;;;4934739;29;20020;-77
2024/03/03 01:44:49;;;;;;;22.15;14.00;;;-1.30;96.40;;;;;;4934428;29;20390;-77
2024/03/03 01:47:15;;;;;;;25.30;13.43;;;-1.30;96.40;;;;;;4933328;29;20028;-78
2024/03/03 01:49:47;;;;;;;26.65;15.48;;;-1.40;96.40;;;;;;4934422;29;20024;-77
2024/03/03 01:52:14;;;;;;;34.97;14.65;;;-1.40;96.40;;;;;;4934205;29;20028;-78
2024/03/03 01:54:40;;;;;;;18.33;12.30;;;-1.40;96.40;;;;;;4928773;29;20020;-78
2024/03/03 01:57:13;;;;;;;23.63;14.80;;;-1.40;96.40;;;;;;4934445;29;20099;-79
2024/03/03 01:59:40;;;;;;;24.52;13.73;;;-1.40;96.40;;;;;;4933474;29;20485;-78
2024/03/03 02:02:06;;;;;;;23.50;14.02;;;-1.40;96.40;;;;;;4943717;29;20131;-77
2024/03/03 02:04:34;;;;;;;26.63;15.45;;;-1.40;96.40;;;;;;4934230;29;20451;-77
2024/03/03 02:07:00;;;;;;;28.30;13.48;;;-1.40;96.40;;;;;;4925335;29;20027;-78
2024/03/03 02:09:26;;;;;;;26.90;13.93;;;-1.50;96.40;;;;;;4930415;29;20075;-78
2024/03/03 02:11:52;;;;;;;24.42;14.02;;;-1.50;96.50;;;;;;4931802;29;20031;-77
2024/03/03 02:14:18;;;;;;;23.92;13.73;;;-1.50;96.50;;;;;;4938083;29;20031;-79
2024/03/03 02:16:45;;;;;;;22.27;13.02;;;-1.50;96.50;;;;;;4936518;29;20027;-79
2024/03/03 02:19:10;;;;;;;27.85;15.02;;;-1.50;96.50;;;;;;4937966;29;20026;-77
2024/03/03 02:21:36;;;;;;;27.75;14.38;;;-1.50;96.50;;;;;;4938159;29;20024;-77
2024/03/03 02:24:02;;;;;;;29.40;14.55;;;-1.50;96.50;;;;;;4937617;29;20134;-77
2024/03/03 02:26:29;;;;;;;28.75;14.27;;;-1.50;96.50;;;;;;4937578;29;20031;-78
2024/03/03 02:28:55;;;;;;;23.33;13.63;;;-1.60;96.50;;;;;;4937796;29;20030;-79
2024/03/03 02:31:22;;;;;;;22.73;12.90;;;-1.60;96.50;;;;;;4937875;29;20031;-77
2024/03/03 02:33:48;;;;;;;33.20;14.38;;;-1.60;96.50;;;;;;4937679;29;20031;-77
2024/03/03 02:36:14;;;;;;;22.10;13.25;;;-1.60;96.40;;;;;;4937476;29;20044;-78
2024/03/03 02:38:45;;;;;;;29.05;13.93;;;-1.60;96.40;;;;;;4940646;29;20024;-76
2024/03/03 02:41:11;;;;;;;22.08;12.95;;;-1.60;96.50;;;;;;4937475;29;20034;-76
2024/03/03 02:43:37;;;;;;;24.33;13.80;;;-1.60;96.50;;;;;;4936670;29;20024;-76
2024/03/03 02:46:03;;;;;;;24.63;15.20;;;-1.60;96.50;;;;;;4937386;29;20039;-75
2024/03/03 02:48:30;;;;;;;29.20;14.73;;;-1.70;96.50;;;;;;4937618;29;20020;-75
2024/03/03 02:50:56;;;;;;;21.75;11.85;;;-1.60;96.50;;;;;;4937394;29;20023;-76
2024/03/03 02:53:22;;;;;;;27.55;15.05;;;-1.60;96.30;;;;;;4937255;29;20496;-76
2024/03/03 02:55:48;;;;;;;25.95;15.15;;;-1.70;96.30;;;;;;4936013;29;20047;-76
2024/03/03 02:58:14;;;;;;;29.77;15.05;;;-1.70;96.30;;;;;;4936941;29;20062;-75
2024/03/03 03:00:40;;;;;;;30.95;15.65;;;-1.70;96.20;;;;;;4929065;29;20051;-77
2024/03/03 03:03:06;;;;;;;30.55;15.32;;;-1.80;96.40;;;;;;4937249;29;20070;-76
2024/03/03 03:05:32;;;;;;;22.80;13.70;;;-1.70;96.50;;;;;;4933387;29;20040;-77
2024/03/03 03:07:58;;;;;;;30.00;16.85;;;-1.70;96.50;;;;;;4930707;29;20058;-77
2024/03/03 03:10:24;;;;;;;24.42;14.05;;;-1.80;96.80;;;;;;4936948;29;20055;-78
2024/03/03 03:12:50;;;;;;;30.80;17.15;;;-1.80;96.50;;;;;;4948210;29;20094;-77
2024/03/03 03:15:16;;;;;;;45.25;15.80;;;-1.80;96.50;;;;;;4937299;29;20079;-75
2024/03/03 03:17:42;;;;;;;28.20;13.30;;;-1.80;96.60;;;;;;4936913;29;20023;-76
2024/03/03 03:20:08;;;;;;;23.65;13.82;;;-1.80;96.60;;;;;;4936729;29;20501;-77
2024/03/03 03:22:34;;;;;;;24.92;14.20;;;-1.80;96.50;;;;;;4934904;29;20027;-76
2024/03/03 03:25:00;;;;;;;24.33;14.35;;;-1.80;96.40;;;;;;4936889;29;20040;-76
2024/03/03 03:27:26;;;;;;;28.27;16.23;;;-1.80;96.40;;;;;;4935276;29;20016;-78
2024/03/03 03:29:51;;;;;;;26.77;15.00;;;-1.90;96.50;;;;;;4936967;29;20079;-77
2024/03/03 03:32:17;;;;;;;21.50;12.90;;;-1.90;96.50;;;;;;4936430;29;20031;-76
2024/03/03 03:34:46;;;;;;;25.15;14.07;;;-1.90;96.60;;;;;;4936197;29;20055;-77
2024/03/03 03:37:12;;;;;;;22.52;14.10;;;-2.00;96.50;;;;;;4933235;29;20052;-77
2024/03/03 03:39:39;;;;;;;22.52;13.35;;;-2.00;96.50;;;;;;4933414;29;20028;-77
2024/03/03 03:42:05;;;;;;;21.70;13.93;;;-2.00;96.50;;;;;;4936726;29;20412;-78
2024/03/03 03:44:31;;;;;;;22.50;12.85;;;-2.00;96.50;;;;;;4934868;29;20289;-76
2024/03/03 03:46:57;;;;;;;22.55;13.02;;;-2.00;96.60;;;;;;4936316;29;20035;-76
2024/03/03 03:49:23;;;;;;;25.48;13.80;;;-2.00;96.50;;;;;;4936416;29;20038;-76
2024/03/03 03:51:49;;;;;;;29.08;15.23;;;-2.10;96.50;;;;;;4936462;29;20028;-77
2024/03/03 03:54:15;;;;;;;19.27;11.60;;;-2.00;96.60;;;;;;4932957;29;20036;-76
2024/03/03 03:56:41;;;;;;;23.77;15.02;;;-2.10;96.50;;;;;;4950799;29;20079;-77
2024/03/03 03:59:06;;;;;;;21.52;13.70;;;-2.10;96.50;;;;;;4934435;29;20488;-77
2024/03/03 04:01:33;;;;;;;32.72;13.93;;;-2.00;96.50;;;;;;4935796;29;20024;-76
2024/03/03 04:03:59;;;;;;;26.10;11.65;;;-2.10;96.60;;;;;;4935215;29;20059;-78
2024/03/03 04:06:26;;;;;;;22.02;12.90;;;-2.10;96.50;;;;;;4935524;29;20119;-76
2024/03/03 04:08:53;;;;;;;24.90;14.02;;;-2.10;96.50;;;;;;4934132;29;20571;-77
2024/03/03 04:11:22;;;;;;;25.33;13.55;;;-2.10;96.50;;;;;;4932878;29;20043;-76
2024/03/03 04:13:48;;;;;;;25.33;13.05;;;-2.10;96.60;;;;;;4938583;29;20059;-77
2024/03/03 04:16:17;;;;;;;19.57;10.80;;;-2.10;96.60;;;;;;4937185;29;20034;-76
2024/03/03 04:18:44;;;;;;;28.98;14.82;;;-2.10;96.60;;;;;;4934352;29;20410;-76
2024/03/03 04:21:10;;;;;;;38.20;14.77;;;-2.10;96.50;;;;;;4935617;29;20019;-76
2024/03/03 04:23:37;;;;;;;21.83;12.85;;;-2.10;96.50;;;;;;4935733;29;20479;-76
2024/03/03 04:26:29;;;;;;;22.23;13.07;;;-2.10;96.50;;;;;;4933870;29;20111;-79
2024/03/03 04:29:07;;;;;;;25.60;11.93;;;-2.10;96.50;;;;;;4934790;29;20579;-77
2024/03/03 04:31:45;;;;;;;23.70;13.27;;;-2.00;96.40;;;;;;4927561;29;20063;-77
2024/03/03 04:34:11;;;;;;;26.25;13.68;;;-2.10;96.30;;;;;;4933809;29;20485;-75
2024/03/03 04:36:37;;;;;;;23.10;13.15;;;-2.10;96.30;;;;;;4935445;29;20055;-78
2024/03/03 04:39:07;;;;;;;25.33;13.27;;;-2.10;96.40;;;;;;4929105;29;20402;-77
2024/03/03 04:41:33;;;;;;;24.27;13.82;;;-2.10;96.40;;;;;;4933857;29;20043;-77
2024/03/03 04:44:08;;;;;;;31.70;13.85;;;-2.10;96.30;;;;;;4934727;29;20103;-76
2024/03/03 04:46:34;;;;;;;22.48;15.65;;;-2.10;96.40;;;;;;4935283;29;20036;-76
2024/03/03 04:48:59;;;;;;;24.52;13.73;;;-2.00;96.40;;;;;;4935190;29;20381;-77
2024/03/03 04:51:28;;;;;;;22.08;13.68;;;-2.00;96.40;;;;;;4934892;29;20035;-76
2024/03/03 04:53:55;;;;;;;25.35;13.38;;;-2.00;96.30;;;;;;4935051;29;20079;-77
2024/03/03 04:57:09;;;;;;;24.58;12.30;;;-2.00;96.10;;;;;;4933788;29;20071;-78
2024/03/03 04:59:35;;;;;;;18.88;11.35;;;-2.00;96.10;;;;;;4935293;29;20049;-78
2024/03/03 05:02:03;;;;;;;20.08;11.38;;;-2.00;96.00;;;;;;4935323;29;20093;-76
2024/03/03 05:04:29;;;;;;;24.05;12.07;;;-2.00;95.90;;;;;;4933848;29;20027;-78
2024/03/03 05:06:54;;;;;;;22.90;11.98;;;-2.10;95.90;;;;;;4943992;23;20129;-76
2024/03/03 05:09:20;;;;;;;18.40;11.45;;;-2.10;96.00;;;;;;4949917;28;20103;-80
2024/03/03 05:11:48;;;;;;;16.48;11.15;;;-2.10;95.90;;;;;;4950325;29;20379;-78
2024/03/03 05:14:14;;;;;;;25.40;12.77;;;-2.10;95.90;;;;;;4949196;29;20028;-78
2024/03/03 05:16:40;;;;;;;25.83;14.05;;;-2.10;95.80;;;;;;4942944;29;20027;-78
2024/03/03 05:19:27;;;;;;;19.90;11.38;;;-2.10;95.80;;;;;;4940771;29;20082;-78
2024/03/03 05:21:53;;;;;;;29.63;13.15;;;-2.00;95.80;;;;;;4937230;29;20079;-78
2024/03/03 05:24:29;;;;;;;24.17;12.30;;;-2.00;95.70;;;;;;4940471;28;20083;-78
2024/03/03 05:26:55;;;;;;;20.52;12.20;;;-2.00;95.70;;;;;;4949632;29;20039;-78
2024/03/03 05:29:21;;;;;;;24.17;12.32;;;-2.00;95.70;;;;;;4942307;28;20019;-81
2024/03/03 05:32:03;;;;;;;20.92;12.88;;;-2.00;95.70;;;;;;4949758;29;20027;-79
2024/03/03 05:34:41;;;;;;;25.17;12.70;;;-1.90;95.60;;;;;;4946854;28;20031;-78
2024/03/03 05:37:07;;;;;;;25.15;13.65;;;-1.90;95.60;;;;;;4950148;29;20082;-78
2024/03/03 05:39:33;;;;;;;20.38;13.73;;;-1.80;95.60;;;;;;4951486;28;20051;-77
2024/03/03 05:45:38;;;;;;;25.77;13.88;;;-1.80;95.60;;;;;;4898291;29;20545;-77
2024/03/03 05:48:04;;;;;;;30.60;16.00;;;-1.70;95.60;;;;;;4911694;29;20492;-79
2024/03/03 05:54:31;;;;;;;23.77;14.23;;;-1.70;95.60;;;;;;4900690;29;20578;-77
2024/03/03 05:57:13;;;;;;;26.60;12.65;;;-1.60;95.60;;;;;;4869242;29;20131;-78
2024/03/03 05:59:39;;;;;;;25.65;12.93;;;-1.60;95.50;;;;;;4868381;29;20492;-76
2024/03/03 06:02:05;;;;;;;31.63;15.48;;;-1.40;95.70;;;;;;4866911;29;20447;-77
2024/03/03 06:04:35;;;;;;;31.88;18.63;;;-1.20;95.20;;;;;;4868291;29;20033;-79
2024/03/03 06:07:01;;;;;;;27.52;16.92;;;-1.20;95.00;;;;;;4866843;29;20158;-78
2024/03/03 06:09:27;;;;;;;25.50;15.43;;;-1.20;94.90;;;;;;4861086;29;20032;-75
2024/03/03 06:11:53;;;;;;;26.88;16.13;;;-1.20;94.90;;;;;;4861153;29;20488;-78
2024/03/03 06:14:19;;;;;;;26.25;15.73;;;-1.20;94.80;;;;;;4860484;29;20622;-78
2024/03/03 06:16:45;;;;;;;30.75;16.02;;;-1.20;94.80;;;;;;4858891;29;20037;-78
2024/03/03 06:19:11;;;;;;;28.37;15.60;;;-1.10;94.80;;;;;;4884615;29;20067;-77
2024/03/03 06:21:37;;;;;;;31.23;16.05;;;-1.10;94.60;;;;;;4919546;29;20464;-80
2024/03/03 06:24:03;;;;;;;21.50;15.05;;;-1.10;94.60;;;;;;4935598;29;20034;-80
2024/03/03 06:26:30;;;;;;;24.40;16.23;;;-1.10;94.50;;;;;;4935790;29;20040;-78
2024/03/03 06:28:56;;;;;;;28.73;14.93;;;-1.00;94.50;;;;;;4935320;29;20036;-77
2024/03/03 06:31:22;;;;;;;24.77;13.82;;;-1.00;94.50;;;;;;4919285;29;20624;-75
2024/03/03 06:33:48;;;;;;;21.88;14.55;;;-1.00;94.40;;;;;;4936073;28;20851;-77
2024/03/03 06:36:20;;;;;;;28.77;13.93;;;-0.90;94.30;;;;;;4951565;29;20450;-79
2024/03/03 06:38:56;;;;;;;26.08;13.80;;;-0.80;94.20;;;;;;4947459;28;20012;-76
2024/03/03 06:41:22;;;;;;;24.13;14.70;;;-0.80;94.00;;;;;;4950924;29;20023;-77
2024/03/03 06:43:48;;;;;;;27.60;14.77;;;-0.70;93.70;;;;;;4965365;28;20033;-77
2024/03/03 06:46:14;;;;;;;26.75;14.32;;;-0.70;93.60;;;;;;4944831;29;20070;-78
2024/03/03 06:48:40;;;;;;;22.33;14.23;;;-0.70;93.50;;;;;;4941912;29;20028;-77
2024/03/03 06:51:06;;;;;;;24.50;14.73;;;-0.60;93.50;;;;;;4947192;29;20019;-76
2024/03/03 06:53:37;;;;;;;28.40;16.08;;;-0.60;93.40;;;;;;4942057;28;20474;-79
2024/03/03 06:56:04;;;;;;;30.92;16.23;;;-0.50;93.40;;;;;;4954366;28;20059;-77
2024/03/03 06:58:29;;;;;;;32.63;15.82;;;-0.50;93.30;;;;;;4943445;28;20505;-77
2024/03/03 07:00:55;;;;;;;22.13;13.75;;;-0.40;93.30;;;;;;4953098;29;20027;-79
2024/03/03 07:06:06;;;;;;;25.10;13.45;;;-0.40;92.90;;;;;;4954449;28;20101;-79
2024/03/03 07:08:32;;;;;;;22.08;13.82;;;-0.30;92.80;;;;;;4952239;28;20047;-78
2024/03/03 07:10:57;;;;;;;19.42;14.20;;;-0.20;92.70;;;;;;4949779;28;20051;-78
2024/03/03 07:13:23;;;;;;;23.60;13.55;;;-0.20;92.70;;;;;;4938009;29;20030;-78
2024/03/03 07:15:49;;;;;;;25.17;14.23;;;-0.10;92.50;;;;;;4939219;29;20478;-79
2024/03/03 07:18:15;;;;;;;23.05;13.88;;;0.00;92.30;;;;;;4938611;29;20046;-79
2024/03/03 07:20:41;;;;;;;26.13;15.85;;;0.10;92.30;;;;;;4953578;28;20027;-79
2024/03/03 07:23:07;;;;;;;26.98;14.93;;;0.10;92.10;;;;;;4939427;29;20363;-79
2024/03/03 07:25:33;;;;;;;26.85;15.32;;;0.20;92.10;;;;;;4952011;29;20035;-76
2024/03/03 07:27:59;;;;;;;24.38;13.70;;;0.30;92.10;;;;;;4940844;28;20030;-78
2024/03/03 07:30:25;;;;;;;21.35;16.80;;;0.30;92.00;;;;;;4944575;28;20085;-78
2024/03/03 07:32:51;;;;;;;34.08;17.50;;;0.40;91.90;;;;;;4940989;28;20064;-77
2024/03/03 07:35:17;;;;;;;29.55;15.27;;;0.50;91.70;;;;;;4939237;29;20032;-76
2024/03/03 07:37:43;;;;;;;29.65;16.75;;;0.50;91.70;;;;;;4942326;29;20026;-78
2024/03/03 07:40:09;;;;;;;26.08;14.50;;;0.60;91.60;;;;;;4942841;29;20082;-76
2024/03/03 07:42:35;;;;;;;25.23;14.15;;;1.10;92.40;;;;;;4946189;28;20045;-78
2024/03/03 07:45:01;;;;;;;23.60;14.30;;;2.50;92.90;;;;;;4940808;28;20473;-77
2024/03/03 07:47:27;;;;;;;21.08;13.98;;;4.10;90.80;;;;;;4953036;29;20078;-77
2024/03/03 07:49:53;;;;;;;25.65;15.02;;;5.30;86.30;;;;;;4942937;28;20035;-76
2024/03/03 07:52:19;;;;;;;27.80;16.33;;;6.30;81.70;;;;;;4941857;29;20024;-78
2024/03/03 07:54:45;;;;;;;30.85;14.77;;;6.80;77.80;;;;;;4945843;28;20046;-76
2024/03/03 07:57:11;;;;;;;20.95;14.25;;;6.70;75.20;;;;;;4941354;29;20027;-77
2024/03/03 07:59:36;;;;;;;24.08;15.07;;;6.10;74.60;;;;;;4953239;29;20735;-77
2024/03/03 08:02:02;;;;;;;22.75;13.57;;;5.70;74.90;;;;;;4946798;28;20085;-77
2024/03/03 08:04:28;;;;;;;24.33;13.50;;;5.90;76.10;;;;;;4948662;29;20047;-79
2024/03/03 08:06:54;;;;;;;24.73;14.43;;;6.80;74.40;;;;;;4945738;28;20052;-77
2024/03/03 08:09:20;;;;;;;20.50;14.40;;;8.20;72.00;;;;;;4954506;28;20091;-77
2024/03/03 08:11:46;;;;;;;19.42;14.60;;;9.70;68.80;;;;;;4944409;29;20111;-78
2024/03/03 08:14:12;;;;;;;23.55;15.65;;;10.70;64.80;;;;;;4937526;29;20051;-77
2024/03/03 08:16:38;;;;;;;27.00;14.98;;;10.90;62.80;;;;;;4937039;29;20437;-79
2024/03/03 08:19:03;;;;;;;25.50;15.73;;;11.50;60.60;;;;;;4949975;29;20027;-79
2024/03/03 08:21:30;;;;;;;22.83;14.48;;;12.50;58.80;;;;;;4938042;29;20397;-78
2024/03/03 08:23:57;;;;;;;23.00;13.10;;;12.90;55.30;;;;;;4951693;29;20036;-77
2024/03/03 08:26:25;;;;;;;18.80;14.07;;;12.70;56.20;;;;;;4949151;28;20038;-78
2024/03/03 08:28:51;;;;;;;21.23;14.57;;;13.80;53.90;;;;;;4937475;29;20028;-78
2024/03/03 08:31:18;;;;;;;26.20;15.48;;;15.00;51.20;;;;;;4957807;28;20126;-78
2024/03/03 08:33:44;;;;;;;19.70;12.63;;;16.20;49.60;;;;;;4944481;28;20020;-78
2024/03/03 08:36:10;;;;;;;24.95;14.02;;;16.90;46.30;;;;;;4942210;28;20079;-79
2024/03/03 08:38:36;;;;;;;27.35;13.93;;;17.20;45.30;;;;;;4938661;29;20030;-79
2024/03/03 08:41:05;;;;;;;24.15;13.23;;;17.30;43.60;;;;;;4941162;29;20027;-79
2024/03/03 08:43:31;;;;;;;22.00;14.50;;;17.40;43.40;;;;;;4938836;28;20046;-78
2024/03/03 08:45:57;;;;;;;27.10;16.23;;;17.70;42.70;;;;;;4942090;29;20028;-79
2024/03/03 08:48:26;;;;;;;21.67;14.82;;;17.80;42.00;;;;;;4944752;29;20027;-78
2024/03/03 08:50:52;;;;;;;22.13;14.25;;;17.70;42.10;;;;;;4942375;29;20031;-78
2024/03/03 08:53:18;;;;;;;22.90;15.07;;;17.70;41.50;;;;;;4942412;28;20019;-78
2024/03/03 08:55:45;;;;;;;21.30;13.60;;;17.10;41.60;;;;;;4950865;29;20047;-78
2024/03/03 08:58:11;;;;;;;22.48;13.13;;;17.10;42.10;;;;;;4959475;28;20106;-79
2024/03/03 09:00:37;;;;;;;24.27;13.63;;;18.10;41.90;;;;;;4941440;29;20070;-78
2024/03/03 09:03:03;;;;;;;20.65;13.50;;;19.10;40.30;;;;;;4941237;28;20108;-78
2024/03/03 09:05:29;;;;;;;17.75;13.85;;;19.90;39.00;;;;;;4949659;28;20115;-79
2024/03/03 09:07:55;;;;;;;21.48;13.13;;;20.60;38.20;;;;;;4953769;28;20516;-78
2024/03/03 09:10:20;;;;;;;22.17;14.68;;;21.10;37.50;;;;;;4952643;29;20493;-80
2024/03/03 09:12:46;;;;;;;25.45;14.95;;;21.50;36.90;;;;;;4938711;28;20042;-78
2024/03/03 09:15:13;;;;;;;21.55;13.45;;;21.80;35.90;;;;;;4949795;29;20035;-78
2024/03/03 09:17:39;;;;;;;19.90;13.38;;;22.20;35.60;;;;;;4938390;29;20020;-77
2024/03/03 09:20:05;;;;;;;22.33;14.35;;;22.40;35.50;;;;;;4941644;28;20056;-79
2024/03/03 09:22:32;;;;;;;21.92;13.52;;;22.60;34.60;;;;;;4951202;28;20032;-80
2024/03/03 09:24:58;;;;;;;20.58;13.63;;;22.50;34.30;;;;;;4953722;28;20492;-78
2024/03/03 09:27:25;;;;;;;20.90;13.75;;;22.30;33.90;;;;;;4940462;28;20035;-79
2024/03/03 09:29:54;;;;;;;;;;;22.30;34.70;;;;;;4949165;29;20071;-79
2024/03/03 09:32:19;;;;;;;24.08;13.20;;;22.70;36.90;;;;;;4948957;29;19918;-77
2024/03/03 09:34:45;;;;;;;16.27;13.45;;;22.90;33.90;;;;;;4950321;28;20028;-78
2024/03/03 09:37:14;;;;;;;19.08;14.80;;;23.10;33.30;;;;;;4943853;29;20441;-80
2024/03/03 09:39:40;;;;;;;21.92;13.95;;;22.10;33.20;;;;;;4952403;28;20015;-79
2024/03/03 09:42:06;;;;;;;19.58;12.27;;;21.10;34.80;;;;;;4952503;29;20028;-79
2024/03/03 09:44:42;;;;;;;17.85;12.07;;;21.10;34.80;;;;;;4937896;28;20099;-78
2024/03/03 09:47:10;;;;;;;17.58;11.65;;;21.40;34.20;;;;;;4943451;28;20450;-80
2024/03/03 09:49:38;;;;;;;16.80;11.90;;;21.60;34.20;;;;;;4942542;29;20108;-79
2024/03/03 09:52:13;;;;;;;16.73;11.77;;;21.80;34.60;;;;;;4936102;29;20059;-80
2024/03/03 09:54:40;;;;;;;18.95;12.45;;;22.50;33.20;;;;;;4937635;28;20024;-79
2024/03/03 09:57:09;;;;;;;;;;;22.80;32.90;;;;;;4935999;29;20031;-80
2024/03/03 09:59:35;;;;;;;21.50;11.85;;;22.70;34.20;;;;;;4937967;28;19941;-79
2024/03/03 10:02:02;;;;;;;21.67;11.63;;;22.50;33.10;;;;;;4941399;28;20351;-79
2024/03/03 10:04:28;;;;;;;17.85;11.68;;;22.60;32.50;;;;;;4934698;28;20028;-79
2024/03/03 10:06:59;;;;;;;17.10;11.75;;;22.80;32.60;;;;;;4933686;29;20044;-79
2024/03/03 10:09:27;;;;;;;22.77;13.88;;;23.20;32.60;;;;;;4940718;29;20580;-80
2024/03/03 10:11:55;;;;;;;18.77;12.68;;;23.60;31.90;;;;;;4952017;28;20032;-79
2024/03/03 10:14:21;;;;;;;21.38;12.48;;;24.00;31.50;;;;;;4953399;28;20469;-77
2024/03/03 10:16:49;;;;;;;17.85;11.23;;;23.80;31.50;;;;;;4953470;28;20063;-78
2024/03/03 10:19:15;;;;;;;15.48;11.15;;;24.00;31.90;;;;;;4946947;28;20070;-78
2024/03/03 10:21:40;;;;;;;15.48;11.68;;;24.10;31.40;;;;;;4953674;29;20015;-80
2024/03/03 10:24:24;;;;;;;14.63;11.68;;;24.30;31.00;;;;;;4951607;28;20023;-78
2024/03/03 10:26:57;;;;;;;18.25;11.15;;;24.50;31.20;;;;;;4941241;29;20028;-79
2024/03/03 10:29:27;;;;;;;20.42;11.25;;;23.90;31.20;;;;;;4940283;29;20031;-81
2024/03/03 10:31:56;;;;;;;16.67;11.30;;;23.30;31.20;;;;;;4961283;28;20481;-82
2024/03/03 10:34:23;;;;;;;15.93;11.00;;;21.20;31.50;;;;;;4944061;29;20117;-83
2024/03/03 10:37:02;;;;;;;16.20;12.50;;;18.80;33.80;;;;;;4943842;28;20585;-81
2024/03/03 10:39:31;;;;;;;19.33;10.80;;;16.80;36.30;;;;;;4938017;29;20166;-81
2024/03/03 10:41:56;;;;;;;15.73;9.80;;;15.10;38.40;;;;;;4943054;28;20024;-83
2024/03/03 10:44:24;;;;;;;19.83;12.38;;;13.90;39.60;;;;;;4941113;29;20030;-84
2024/03/03 10:46:50;;;;;;;14.65;9.20;;;12.80;41.50;;;;;;4937490;29;20031;-81
2024/03/03 10:49:17;;;;;;;15.38;8.55;;;11.90;43.00;;;;;;4951577;28;20385;-81
2024/03/03 10:51:44;;;;;;;13.57;9.50;;;11.20;43.90;;;;;;4943483;28;20098;-85
2024/03/03 10:54:11;;;;;;;15.27;8.77;;;10.60;44.70;;;;;;4951213;28;20032;-84
2024/03/03 10:56:38;;;;;;;14.13;8.52;;;10.10;46.00;;;;;;4943403;28;20031;-85
2024/03/03 10:59:04;;;;;;;16.90;9.25;;;9.70;46.50;;;;;;4961323;29;20283;-84
2024/03/03 11:01:35;;;;;;;13.77;8.98;;;9.40;47.20;;;;;;4954500;29;20031;-81
2024/03/03 11:04:05;;;;;;;14.85;8.15;;;9.30;48.20;;;;;;4937803;29;20103;-82
2024/03/03 11:06:32;;;;;;;10.70;8.60;;;9.00;49.10;;;;;;4941208;28;20042;-86
2024/03/03 11:09:00;;;;;;;15.68;8.73;;;8.80;49.10;;;;;;4956522;29;20761;-84
2024/03/03 11:11:29;;;;;;;13.90;9.07;;;8.60;49.00;;;;;;4958033;28;20106;-83
2024/03/03 11:14:08;;;;;;;13.98;9.30;;;8.40;49.50;;;;;;4957176;28;20564;-82
2024/03/03 11:16:37;;;;;;;13.68;8.30;;;8.30;50.30;;;;;;4949950;29;20400;-84
2024/03/03 11:19:06;;;;;;;17.33;8.32;;;8.30;50.40;;;;;;4954411;28;20039;-84
2024/03/03 11:21:39;;;;;;;14.30;8.43;;;8.20;51.00;;;;;;4958042;28;20081;-86
2024/03/03 11:24:06;;;;;;;12.52;8.55;;;8.10;51.30;;;;;;4957149;29;20393;-86
2024/03/03 11:26:52;;;;;;;11.27;7.70;;;8.10;52.00;;;;;;4955782;29;20027;-86
2024/03/03 11:29:19;;;;;;;14.18;7.90;;;8.00;52.00;;;;;;4953887;29;20027;-87
2024/03/03 11:31:46;;;;;;;;;;;8.00;51.70;;;;;;4958191;28;20373;-85
2024/03/03 11:34:13;;;;;;;12.18;8.18;;;7.90;51.30;;;;;;4957533;28;19906;-84
2024/03/03 11:36:40;;;;;;;10.80;7.57;;;7.90;52.00;;;;;;4952924;28;20031;-85
2024/03/03 11:39:13;;;;;;;14.32;7.78;;;7.70;51.80;;;;;;4950078;29;20035;-83
2024/03/03 11:41:41;;;;;;;11.35;6.90;;;7.60;52.30;;;;;;4957775;28;20019;-88
2024/03/03 11:44:32;;;;;;;10.82;6.93;;;7.50;53.30;;;;;;4956879;28;20039;-85
2024/03/03 11:47:00;;;;;;;11.73;6.97;;;7.40;53.20;;;;;;4958592;28;20047;-84
2024/03/03 11:49:26;;;;;;;14.55;8.35;;;7.40;53.20;;;;;;4965289;28;20084;-84
2024/03/03 11:51:52;;;;;;;12.13;6.78;;;7.40;53.60;;;;;;4963259;28;20061;-86
2024/03/03 11:54:31;;;;;;;8.80;6.47;;;7.40;53.60;;;;;;4957174;28;20039;-84
2024/03/03 11:57:01;;;;;;;10.80;6.72;;;7.40;53.30;;;;;;4956710;28;20063;-86
2024/03/03 11:59:36;;;;;;;9.25;5.00;;;7.40;53.50;;;;;;4953098;28;20065;-82
2024/03/03 12:02:04;;;;;;;13.32;6.15;;;7.30;53.50;;;;;;4954205;29;20115;-83
2024/03/03 12:04:30;;;;;;;;;;;7.40;53.60;;;;;;4955074;29;20061;-84
2024/03/03 12:06:56;;;;;;;11.35;7.95;;;7.30;53.50;;;;;;4960729;28;19958;-83
2024/03/03 12:09:22;;;;;;;9.93;5.82;;;7.30;53.80;;;;;;4954786;28;20111;-82
2024/03/03 12:11:56;;;;;;;10.02;5.82;;;7.30;54.10;;;;;;4946194;28;20066;-82
2024/03/03 12:14:22;;;;;;;10.75;6.00;;;7.30;53.80;;;;;;4938031;28;20034;-82
2024/03/03 12:16:48;;;;;;;11.13;5.90;;;7.30;54.10;;;;;;4942022;29;20023;-82
2024/03/03 12:19:14;;;;;;;8.13;5.10;;;7.30;54.00;;;;;;4938874;28;20082;-83
2024/03/03 12:21:40;;;;;;;7.90;5.55;;;7.30;53.60;;;;;;4944002;29;20110;-86
2024/03/03 12:24:08;;;;;;;19.48;6.38;;;7.30;53.60;;;;;;4951475;29;20564;-86
2024/03/03 12:26:35;;;;;;;7.72;5.18;;;7.30;53.50;;;;;;4948747;28;20122;-86
2024/03/03 12:29:01;;;;;;;10.82;6.20;;;7.20;53.80;;;;;;4949578;28;20497;-84
2024/03/03 12:31:30;;;;;;;11.68;6.80;;;7.20;54.10;;;;;;4942760;28;20103;-85
2024/03/03 12:34:00;;;;;;;11.43;6.22;;;7.20;53.90;;;;;;4952363;28;20030;-85
2024/03/03 12:36:27;;;;;;;13.02;6.32;;;7.10;54.40;;;;;;4950280;28;20140;-85
2024/03/03 12:38:55;;;;;;;11.50;5.75;;;7.20;54.80;;;;;;4960387;29;20071;-86
2024/03/03 12:41:21;;;;;;;7.18;5.10;;;7.20;54.50;;;;;;4951130;28;20024;-86
2024/03/03 12:43:47;;;;;;;12.75;6.53;;;7.10;54.10;;;;;;4937788;29;20019;-85